Time;durP1;ratioP1;P1;durP2;ratioP2;P2;SDS_P1;SDS_P2;PMS_P1;PMS_P2;Temp;Humidity;BMP_temperature;BMP_pressure;BME280_temperature;BME280_humidity;BME280_pressure;Samples;Min_cycle;Max_cycle;Signal;HPM_P1;HPM_P2
2023/04/25 00:00:52;;;;;;;;;;;;;;;14.34;84.94;96346.75;5088324;28;20385;-74
2023/04/25 00:03:19;;;;;;;;;;;;;;;14.37;83.12;96333.53;5087521;28;20019;-71
2023/04/25 00:05:46;;;;;;;;;;;;;;;14.32;83.54;96335.63;5070068;28;19932;-69
2023/04/25 00:08:13;;;;;;;;;;;;;;;14.28;83.03;96338.53;5070556;28;19924;-69
2023/04/25 00:10:39;;;;;;;;;;;;;;;14.24;83.39;96340.53;5087763;28;19924;-73
2023/04/25 00:13:08;;;;;;;;;;;;;;;14.04;84.02;96328.09;5088243;28;19973;-70
2023/04/25 00:15:35;;;;;;;;;;;;;;;13.82;84.36;96322.72;5087811;28;20009;-69
2023/04/25 00:18:02;;;;;;;;;;;;;;;13.61;86.32;96314.66;5087948;28;19931;-74
2023/04/25 00:20:29;;;;;;;;;;;;;;;13.50;86.13;96305.91;5087959;28;19924;-69
2023/04/25 00:22:56;;;;;;;;;;;;;;;13.37;86.97;96298.13;5087657;28;20080;-73
2023/04/25 00:25:23;;;;;;;;;;;;;;;13.31;88.39;96300.31;5088139;28;20350;-70
2023/04/25 00:27:50;;;;;;;;;;;;;;;13.02;89.55;96290.06;5087914;28;20360;-68
2023/04/25 00:30:16;;;;;;;;;;;;;;;12.94;90.12;96283.75;5069862;28;19956;-71
2023/04/25 00:32:43;;;;;;;;;;;;;;;12.82;91.13;96287.97;5069334;28;20459;-73
2023/04/25 00:35:10;;;;;;;;;;;;;;;12.74;91.47;96282.47;5087645;28;19976;-70
2023/04/25 00:37:37;;;;;;;;;;;;;;;12.79;90.68;96269.19;5087763;28;19974;-69
2023/04/25 00:40:07;;;;;;;;;;;;;;;12.81;90.08;96255.16;5087380;28;19928;-69
2023/04/25 00:42:35;;;;;;;;;;;;;;;12.67;89.80;96250.06;5069566;28;19924;-68
2023/04/25 00:45:04;;;;;;;;;;;;;;;12.74;89.81;96246.09;5069053;28;20020;-69
2023/04/25 00:47:31;;;;;;;;;;;;;;;12.73;89.64;96241.00;5069580;28;19928;-67
2023/04/25 00:49:58;;;;;;;;;;;;;;;12.88;88.59;96237.38;5087260;28;19928;-69
2023/04/25 00:52:25;;;;;;;;;;;;;;;12.82;87.28;96236.00;5087784;28;20011;-69
2023/04/25 00:54:51;;;;;;;;;;;;;;;12.82;87.10;96238.63;5087508;28;20015;-68
2023/04/25 00:57:19;;;;;;;;;;;;;;;12.86;87.68;96240.06;5087150;28;19924;-68
2023/04/25 00:59:46;;;;;;;;;;;;;;;12.99;87.76;96234.88;5087600;28;19924;-72
2023/04/25 01:02:13;;;;;;;;;;;;;;;13.09;89.23;96235.94;5086905;28;19924;-69
2023/04/25 01:04:40;;;;;;;;;;;;;;;13.36;88.39;96228.00;5069478;28;19927;-69
2023/04/25 01:07:08;;;;;;;;;;;;;;;13.57;87.89;96216.09;5087090;28;19963;-69
2023/04/25 01:09:35;;;;;;;;;;;;;;;13.71;87.08;96223.75;5087340;28;20364;-69
2023/04/25 01:12:02;;;;;;;;;;;;;;;13.75;86.65;96213.03;5087380;28;19932;-69
2023/04/25 01:14:29;;;;;;;;;;;;;;;13.87;86.66;96221.72;5087018;28;19924;-68
2023/04/25 01:16:56;;;;;;;;;;;;;;;13.98;86.32;96219.19;5069170;28;19947;-68
2023/04/25 01:19:24;;;;;;;;;;;;;;;14.04;86.21;96223.94;5086699;28;19924;-68
2023/04/25 01:21:51;;;;;;;;;;;;;;;13.99;86.30;96217.41;5069493;28;19928;-69
2023/04/25 01:24:18;;;;;;;;;;;;;;;14.06;85.27;96214.25;5068428;28;19973;-68
2023/04/25 01:26:49;;;;;;;;;;;;;;;13.99;85.51;96215.66;5069142;28;19931;-68
2023/04/25 01:29:20;;;;;;;;;;;;;;;13.96;86.37;96207.22;5068930;28;19974;-68
2023/04/25 01:31:47;;;;;;;;;;;;;;;13.97;86.29;96211.50;5068777;28;19924;-67
2023/04/25 01:34:14;;;;;;;;;;;;;;;13.91;86.83;96207.53;5068987;28;20381;-68
2023/04/25 01:36:41;;;;;;;;;;;;;;;13.77;86.90;96198.13;5068407;28;19924;-68
2023/04/25 01:39:09;;;;;;;;;;;;;;;13.83;86.54;96189.03;5069142;28;20090;-68
2023/04/25 01:41:36;;;;;;;;;;;;;;;13.83;86.07;96189.88;5068614;28;19924;-68
2023/04/25 01:44:03;;;;;;;;;;;;;;;13.85;86.47;96194.97;5068771;28;19966;-67
2023/04/25 01:46:30;;;;;;;;;;;;;;;13.89;86.06;96188.59;5087110;28;19927;-68
2023/04/25 01:48:57;;;;;;;;;;;;;;;13.95;85.81;96202.97;5086807;28;19927;-69
2023/04/25 01:51:24;;;;;;;;;;;;;;;13.94;85.80;96191.72;5069021;28;19985;-68
2023/04/25 01:53:51;;;;;;;;;;;;;;;13.93;86.07;96192.66;5086409;28;19924;-68
2023/04/25 01:56:19;;;;;;;;;;;;;;;14.07;86.45;96192.50;5087410;28;20319;-67
2023/04/25 01:58:46;;;;;;;;;;;;;;;14.02;85.78;96189.38;5068509;28;19920;-68
2023/04/25 02:01:15;;;;;;;;;;;;;;;13.96;85.37;96184.63;5086926;28;19922;-67
2023/04/25 02:03:50;;;;;;;;;;;;;;;13.90;85.72;96190.28;5068460;28;19920;-67
2023/04/25 02:06:24;;;;;;;;;;;;;;;13.78;85.19;96180.75;5068417;28;20598;-69
2023/04/25 02:08:53;;;;;;;;;;;;;;;13.76;85.20;96193.06;5068982;28;19924;-67
2023/04/25 02:11:20;;;;;;;;;;;;;;;13.87;85.09;96190.50;5068512;28;20172;-68
2023/04/25 02:13:57;;;;;;;;;;;;;;;13.97;85.12;96182.88;5052202;28;19920;-68
2023/04/25 02:16:44;;;;;;;;;;;;;;;13.81;85.31;96183.13;5085826;28;19977;-68
2023/04/25 02:19:11;;;;;;;;;;;;;;;13.91;85.19;96186.72;5068448;28;19926;-68
2023/04/25 02:21:38;;;;;;;;;;;;;;;13.94;84.67;96183.91;5068553;28;19927;-68
2023/04/25 02:24:05;;;;;;;;;;;;;;;13.89;85.03;96194.66;5067825;28;20011;-68
2023/04/25 02:26:33;;;;;;;;;;;;;;;13.83;85.68;96194.25;5072015;28;19920;-67
2023/04/25 02:29:01;;;;;;;;;;;;;;;13.90;85.52;96205.91;5071550;28;19995;-69
2023/04/25 02:31:27;;;;;;;;;;;;;;;13.70;85.56;96204.72;5090258;28;19958;-69
2023/04/25 02:33:56;;;;;;;;;;;;;;;13.73;85.68;96208.88;5090192;28;19920;-68
2023/04/25 02:36:23;;;;;;;;;;;;;;;13.57;86.02;96203.94;5071532;28;19985;-68
2023/04/25 02:38:50;;;;;;;;;;;;;;;13.71;86.18;96208.97;5090153;28;20406;-68
2023/04/25 02:41:20;;;;;;;;;;;;;;;13.62;86.14;96201.81;5089603;28;20414;-70
2023/04/25 02:43:47;;;;;;;;;;;;;;;13.48;85.77;96201.13;5090409;28;20954;-69
2023/04/25 02:46:17;;;;;;;;;;;;;;;12.87;88.34;96204.53;5071339;28;19951;-71
2023/04/25 02:48:59;;;;;;;;;;;;;;;12.52;91.02;96206.06;5089886;28;19954;-70
2023/04/25 02:51:26;;;;;;;;;;;;;;;12.49;92.43;96201.09;5089652;28;19925;-69
2023/04/25 02:53:53;;;;;;;;;;;;;;;12.56;90.86;96197.97;5089568;28;19924;-68
2023/04/25 02:56:19;;;;;;;;;;;;;;;12.65;90.54;96201.72;5071828;28;19977;-72
2023/04/25 02:58:46;;;;;;;;;;;;;;;12.72;90.49;96197.75;5071277;28;19920;-68
2023/04/25 03:01:13;;;;;;;;;;;;;;;12.80;90.30;96198.91;5071858;28;19920;-69
2023/04/25 03:03:40;;;;;;;;;;;;;;;13.11;89.79;96204.66;5089203;28;20343;-70
2023/04/25 03:06:07;;;;;;;;;;;;;;;13.13;88.69;96208.00;5089472;28;20014;-70
2023/04/25 03:08:34;;;;;;;;;;;;;;;13.20;88.63;96206.63;5071272;28;20014;-72
2023/04/25 03:11:01;;;;;;;;;;;;;;;13.23;88.56;96215.03;5071135;28;19920;-72
2023/04/25 03:13:29;;;;;;;;;;;;;;;13.28;88.03;96212.09;5089313;28;20422;-73
2023/04/25 03:15:57;;;;;;;;;;;;;;;13.36;88.15;96215.00;5052478;28;19985;-72
2023/04/25 03:18:24;;;;;;;;;;;;;;;13.43;88.20;96218.84;5069091;28;19924;-72
2023/04/25 03:20:53;;;;;;;;;;;;;;;13.52;87.79;96220.78;5088687;28;19920;-73
2023/04/25 03:23:21;;;;;;;;;;;;;;;13.59;87.56;96211.63;5086986;28;19930;-73
2023/04/25 03:25:47;;;;;;;;;;;;;;;13.63;87.03;96207.88;5051204;28;20010;-72
2023/04/25 03:28:14;;;;;;;;;;;;;;;13.69;87.32;96215.22;5092429;28;19983;-72
2023/04/25 03:30:41;;;;;;;;;;;;;;;13.77;87.27;96218.13;5078676;28;19942;-69
2023/04/25 03:33:09;;;;;;;;;;;;;;;13.80;86.20;96217.91;5070964;28;19955;-70
2023/04/25 03:35:36;;;;;;;;;;;;;;;13.61;85.61;96209.75;5071663;28;19956;-67
2023/04/25 03:38:03;;;;;;;;;;;;;;;13.36;87.48;96209.81;5052869;28;19919;-73
2023/04/25 03:40:34;;;;;;;;;;;;;;;12.97;88.99;96196.00;5071045;28;20042;-67
2023/04/25 03:43:14;;;;;;;;;;;;;;;12.73;90.91;96196.84;5070666;28;19985;-68
2023/04/25 03:45:48;;;;;;;;;;;;;;;12.87;90.53;96199.34;5070394;28;19969;-68
2023/04/25 03:48:21;;;;;;;;;;;;;;;12.99;89.75;96204.53;5071120;28;19924;-70
2023/04/25 03:50:48;;;;;;;;;;;;;;;13.21;89.33;96206.50;5069392;28;20386;-69
2023/04/25 03:53:15;;;;;;;;;;;;;;;13.29;88.81;96211.19;5078493;28;20345;-67
2023/04/25 03:56:20;;;;;;;;;;;;;;;13.39;88.53;96201.81;5005942;28;19921;-68
2023/04/25 03:58:53;;;;;;;;;;;;;;;13.47;88.56;96202.09;5005824;28;20434;-71
2023/04/25 04:01:25;;;;;;;;;;;;;;;13.53;87.72;96196.44;5044310;28;19920;-69
2023/04/25 04:03:52;;;;;;;;;;;;;;;13.57;87.52;96197.91;5080622;28;20030;-72
2023/04/25 04:06:20;;;;;;;;;;;;;;;13.60;87.11;96195.91;5070312;28;19920;-68
2023/04/25 04:08:53;;;;;;;;;;;;;;;13.48;87.81;96198.53;5070498;28;19940;-69
2023/04/25 04:11:20;;;;;;;;;;;;;;;13.50;87.61;96207.06;5070937;28;19951;-73
2023/04/25 04:13:47;;;;;;;;;;;;;;;13.56;87.79;96201.44;5081994;28;19919;-69
2023/04/25 04:16:14;;;;;;;;;;;;;;;13.55;87.57;96207.56;5087230;28;19920;-67
2023/04/25 04:18:41;;;;;;;;;;;;;;;13.59;87.34;96209.88;5062541;28;19949;-70
2023/04/25 04:21:08;;;;;;;;;;;;;;;13.59;87.37;96211.63;5090098;28;19920;-72
2023/04/25 04:23:38;;;;;;;;;;;;;;;13.59;87.54;96211.63;5069970;28;19920;-69
2023/04/25 04:26:08;;;;;;;;;;;;;;;13.62;86.90;96206.22;5053121;28;19946;-69
2023/04/25 04:29:04;;;;;;;;;;;;;;;13.63;86.59;96206.09;5068638;28;19924;-74
2023/04/25 04:31:57;;;;;;;;;;;;;;;13.61;85.98;96209.75;5066161;28;19919;-72
2023/04/25 04:34:25;;;;;;;;;;;;;;;13.63;86.39;96211.31;5062230;28;19920;-72
2023/04/25 04:36:52;;;;;;;;;;;;;;;13.78;86.15;96212.00;5052554;28;20010;-72
2023/04/25 04:39:20;;;;;;;;;;;;;;;13.70;85.50;96204.72;5069044;28;19927;-74
2023/04/25 04:42:04;;;;;;;;;;;;;;;13.74;85.82;96206.19;5068002;28;20307;-73
2023/04/25 04:44:58;;;;;;;;;;;;;;;13.75;85.22;96192.22;5046571;28;19920;-71
2023/04/25 04:47:41;;;;;;;;;;;;;;;13.83;84.57;96195.09;5048680;28;19932;-71
2023/04/25 04:50:45;;;;;;;;;;;;;;;13.93;83.94;96195.25;4965778;28;19928;-68
2023/04/25 04:53:22;;;;;;;;;;;;;;;13.60;86.10;96203.69;5039476;28;20244;-70
2023/04/25 04:56:07;;;;;;;;;;;;;;;13.53;87.09;96201.66;5085392;28;20405;-70
2023/04/25 04:58:48;;;;;;;;;;;;;;;13.44;87.91;96200.53;5068774;28;20312;-72
2023/04/25 05:01:37;;;;;;;;;;;;;;;13.19;90.04;96197.16;5082500;28;19950;-74
2023/04/25 05:04:24;;;;;;;;;;;;;;;13.37;88.93;96194.13;5084264;28;19919;-69
2023/04/25 05:07:02;;;;;;;;;;;;;;;13.17;91.22;96192.06;5070148;28;19949;-68
2023/04/25 05:09:42;;;;;;;;;;;;;;;13.18;91.28;96198.09;5069653;28;19920;-69
2023/04/25 05:12:31;;;;;;;;;;;;;;;13.55;90.21;96198.00;5075500;28;20299;-71
2023/04/25 05:15:18;;;;;;;;;;;;;;;13.51;89.67;96188.75;5087281;28;20018;-67
2023/04/25 05:18:11;;;;;;;;;;;;;;;13.57;88.97;96197.91;5068873;28;19927;-68
2023/04/25 05:20:51;;;;;;;;;;;;;;;13.65;88.61;96196.41;5068489;28;19928;-67
2023/04/25 05:23:38;;;;;;;;;;;;;;;13.76;88.42;96193.88;5025872;28;20445;-68
2023/04/25 05:26:31;;;;;;;;;;;;;;;13.91;86.77;96194.53;5050227;28;19970;-68
2023/04/25 05:29:16;;;;;;;;;;;;;;;13.85;87.14;96200.19;5057622;28;20529;-67
2023/04/25 05:32:12;;;;;;;;;;;;;;;14.15;85.81;96194.53;5014450;28;20352;-67
2023/04/25 05:34:40;;;;;;;;;;;;;;;14.07;85.33;96181.25;5068180;28;19926;-72
2023/04/25 05:37:18;;;;;;;;;;;;;;;14.10;85.18;96186.22;5045465;28;20356;-73
2023/04/25 05:39:59;;;;;;;;;;;;;;;13.92;85.72;96188.41;5048590;28;20332;-71
2023/04/25 05:42:46;;;;;;;;;;;;;;;14.31;84.65;96185.50;5048105;28;20011;-71
2023/04/25 05:45:27;;;;;;;;;;;;;;;14.57;83.36;96187.00;5048599;28;19927;-72
2023/04/25 05:48:03;;;;;;;;;;;;;;;14.33;82.94;96115.91;5068935;28;19926;-73
2023/04/25 05:51:08;;;;;;;;;;;;;;;14.88;81.84;96190.72;5046801;28;20453;-73
2023/04/25 05:54:05;;;;;;;;;;;;;;;14.93;82.49;96187.75;5030028;28;19920;-70
2023/04/25 05:56:33;;;;;;;;;;;;;;;15.12;81.68;96182.81;5043093;28;19920;-70
2023/04/25 05:59:00;;;;;;;;;;;;;;;15.28;80.86;96185.88;5087213;28;19920;-70
2023/04/25 06:01:28;;;;;;;;;;;;;;;15.43;80.28;96180.31;5089694;28;19926;-68
2023/04/25 06:03:57;;;;;;;;;;;;;;;15.58;79.60;96178.28;5072130;28;19955;-72
2023/04/25 06:06:26;;;;;;;;;;;;;;;15.37;80.49;96185.16;5055791;28;20368;-68
2023/04/25 06:08:54;;;;;;;;;;;;;;;15.49;80.13;96189.47;5071800;28;20002;-71
2023/04/25 06:11:21;;;;;;;;;;;;;;;15.46;79.54;96181.84;5072222;28;20361;-69
2023/04/25 06:13:48;;;;;;;;;;;;;;;15.55;78.47;96182.91;5071790;28;19963;-75
2023/04/25 06:16:16;;;;;;;;;;;;;;;15.12;79.99;96188.84;5071670;28;19930;-69
2023/04/25 06:18:42;;;;;;;;;;;;;;;15.33;79.64;96187.16;5089869;28;20369;-71
2023/04/25 06:21:09;;;;;;;;;;;;;;;15.42;79.07;96186.50;5089798;28;19920;-74
2023/04/25 06:23:37;;;;;;;;;;;;;;;15.33;79.24;96204.63;5037480;28;20466;-71
2023/04/25 06:26:06;;;;;;;;;;;;;;;15.21;79.55;96197.72;5050986;28;20372;-69
2023/04/25 06:28:36;;;;;;;;;;;;;;;15.20;79.55;96202.13;5051577;28;19921;-69
2023/04/25 06:31:04;;;;;;;;;;;;;;;15.10;79.89;96198.56;5034958;28;19924;-73
2023/04/25 06:33:31;;;;;;;;;;;;;;;15.27;79.66;96203.31;5051386;28;19927;-70
2023/04/25 06:35:59;;;;;;;;;;;;;;;15.23;79.94;96204.47;5068849;28;19927;-72
2023/04/25 06:38:27;;;;;;;;;;;;;;;15.24;79.24;96197.50;5085031;28;19958;-74
2023/04/25 06:40:56;;;;;;;;;;;;;;;15.44;79.53;96194.19;5074658;28;20399;-73
2023/04/25 06:43:24;;;;;;;;;;;;;;;15.54;78.27;96195.13;5090669;28;20409;-68
2023/04/25 06:46:10;;;;;;;;;;;;;;;15.67;76.65;96203.66;5089988;28;19920;-70
2023/04/25 06:48:42;;;;;;;;;;;;;;;15.57;76.14;96201.88;5071175;28;20383;-70
2023/04/25 06:51:10;;;;;;;;;;;;;;;15.87;75.28;96195.06;5070817;28;19927;-67
2023/04/25 06:53:38;;;;;;;;;;;;;;;15.52;75.23;96197.03;5054403;28;19920;-68
2023/04/25 06:56:07;;;;;;;;;;;;;;;15.69;75.88;96203.53;5071913;28;19920;-70
2023/04/25 06:59:06;;;;;;;;;;;;;;;16.04;74.96;96198.94;5059506;28;19920;-73
2023/04/25 07:02:00;;;;;;;;;;;;;;;16.06;74.37;96197.03;5089615;28;20343;-70
2023/04/25 07:04:30;;;;;;;;;;;;;;;15.90;74.38;96199.22;5070368;28;20019;-70
2023/04/25 07:07:16;;;;;;;;;;;;;;;15.73;74.93;96197.94;5042175;28;19981;-75
2023/04/25 07:10:02;;;;;;;;;;;;;;;15.72;75.01;96198.91;5056060;28;19924;-71
2023/04/25 07:12:30;;;;;;;;;;;;;;;15.92;74.21;96203.38;5070216;28;19942;-68
2023/04/25 07:14:57;;;;;;;;;;;;;;;15.91;74.71;96193.84;5071125;28;19919;-69
2023/04/25 07:17:25;;;;;;;;;;;;;;;16.08;74.66;96198.56;5069917;28;20454;-69
2023/04/25 07:19:52;;;;;;;;;;;;;;;16.12;74.01;96196.53;5071328;28;19920;-71
2023/04/25 07:22:19;;;;;;;;;;;;;;;16.09;74.08;96196.78;5057223;28;19920;-69
2023/04/25 07:24:48;;;;;;;;;;;;;;;15.67;73.34;96154.06;5056263;28;20357;-71
2023/04/25 07:27:19;;;;;;;;;;;;;;;15.62;73.78;96192.75;5070583;28;20019;-71
2023/04/25 07:30:01;;;;;;;;;;;;;;;15.49;75.46;96192.06;5055596;28;19920;-69
2023/04/25 07:32:31;;;;;;;;;;;;;;;15.27;76.69;96155.53;5070515;28;19977;-69
2023/04/25 07:34:59;;;;;;;;;;;;;;;15.70;75.94;96177.31;5069824;28;19920;-71
2023/04/25 07:37:28;;;;;;;;;;;;;;;15.93;74.61;96176.28;5053688;28;19930;-70
2023/04/25 07:40:03;;;;;;;;;;;;;;;15.80;75.75;96178.25;5070958;28;19920;-70
2023/04/25 07:42:33;;;;;;;;;;;;;;;15.92;74.78;96176.41;5052995;28;19920;-70
2023/04/25 07:45:06;;;;;;;;;;;;;;;15.99;74.16;96169.75;5069871;28;19920;-69
2023/04/25 07:47:33;;;;;;;;;;;;;;;16.13;74.03;96166.84;5052759;28;19924;-73
2023/04/25 07:50:00;;;;;;;;;;;;;;;16.33;73.92;96167.81;5069666;28;19920;-70
2023/04/25 07:52:30;;;;;;;;;;;;;;;16.98;71.74;96165.81;5069701;28;19924;-68
2023/04/25 07:55:05;;;;;;;;;;;;;;;17.21;70.48;96164.63;5054437;28;19920;-73
2023/04/25 07:57:48;;;;;;;;;;;;;;;17.21;69.78;96166.44;5069444;28;19938;-69
2023/04/25 08:00:15;;;;;;;;;;;;;;;17.09;70.04;96165.69;5069250;28;19920;-68
2023/04/25 08:02:47;;;;;;;;;;;;;;;17.35;69.24;96160.84;5069751;28;19920;-70
2023/04/25 08:05:16;;;;;;;;;;;;;;;17.63;69.55;96155.72;5087424;28;19977;-73
2023/04/25 08:07:52;;;;;;;;;;;;;;;17.56;67.81;96151.97;5071918;28;19939;-69
2023/04/25 08:10:20;;;;;;;;;;;;;;;17.86;66.64;96156.31;5073368;28;19920;-70
2023/04/25 08:12:48;;;;;;;;;;;;;;;17.76;66.38;96164.13;5069796;28;19926;-70
2023/04/25 08:15:15;;;;;;;;;;;;;;;17.86;64.79;96162.41;5087940;28;20015;-69
2023/04/25 08:17:44;;;;;;;;;;;;;;;18.11;64.92;96157.56;5069378;28;20316;-68
2023/04/25 08:20:12;;;;;;;;;;;;;;;18.34;62.52;96153.72;5069615;28;19942;-71
2023/04/25 08:22:41;;;;;;;;;;;;;;;18.63;62.16;96150.09;5068172;28;19920;-68
2023/04/25 08:25:20;;;;;;;;;;;;;;;18.37;61.78;96154.25;5069593;28;19920;-69
2023/04/25 08:27:47;;;;;;;;;;;;;;;18.35;61.63;96158.81;5068754;28;19920;-68
2023/04/25 08:30:16;;;;;;;;;;;;;;;18.56;60.64;96156.06;5052248;28;19920;-68
2023/04/25 08:32:45;;;;;;;;;;;;;;;18.68;60.41;96153.16;5087145;28;20339;-69
2023/04/25 08:35:25;;;;;;;;;;;;;;;18.59;60.26;96156.59;5068466;28;20360;-69
2023/04/25 08:37:52;;;;;;;;;;;;;;;18.37;60.91;96150.81;5069195;28;20018;-72
2023/04/25 08:40:25;;;;;;;;;;;;;;;18.21;61.80;96147.91;5068392;28;19920;-68
2023/04/25 08:43:03;;;;;;;;;;;;;;;18.20;61.18;96146.25;5069057;28;19996;-69
2023/04/25 08:45:31;;;;;;;;;;;;;;;18.09;62.28;96144.63;5068260;28;19963;-68
2023/04/25 08:48:00;;;;;;;;;;;;;;;18.25;62.34;96141.44;5068841;28;19934;-69
2023/04/25 08:50:27;;;;;;;;;;;;;;;18.48;61.54;96137.59;5068962;28;20311;-70
2023/04/25 08:53:01;;;;;;;;;;;;;;;18.34;61.10;96135.38;5051495;28;19927;-70
2023/04/25 08:55:29;;;;;;;;;;;;;;;18.46;61.57;96131.66;5055505;28;19920;-68
2023/04/25 08:57:59;;;;;;;;;;;;;;;18.65;60.20;96132.44;5058843;28;19924;-67
2023/04/25 09:00:27;;;;;;;;;;;;;;;18.21;61.10;96137.44;5088723;28;19920;-69
2023/04/25 09:02:56;;;;;;;;;;;;;;;18.34;60.85;96128.31;5068839;28;19953;-71
2023/04/25 09:05:28;;;;;;;;;;;;;;;18.52;60.67;96128.47;5068642;28;19959;-72
2023/04/25 09:07:56;;;;;;;;;;;;;;;18.58;61.70;96131.38;5086939;28;20021;-71
2023/04/25 09:10:23;;;;;;;;;;;;;;;18.63;61.17;96134.38;5067640;28;19931;-69
2023/04/25 09:13:04;;;;;;;;;;;;;;;18.30;61.69;96134.78;5068457;28;19920;-70
2023/04/25 09:15:51;;;;;;;;;;;;;;;18.26;61.52;96138.66;5068041;28;19924;-71
2023/04/25 09:18:32;;;;;;;;;;;;;;;18.45;61.17;96132.59;5067698;28;20386;-71
2023/04/25 09:21:06;;;;;;;;;;;;;;;18.50;60.03;96133.03;5068538;28;19920;-69
2023/04/25 09:23:49;;;;;;;;;;;;;;;18.55;60.06;96136.88;5067654;28;19924;-71
2023/04/25 09:26:20;;;;;;;;;;;;;;;18.47;59.50;96122.81;5068208;28;19927;-70
2023/04/25 09:29:04;;;;;;;;;;;;;;;18.51;59.60;96126.81;5068252;28;20310;-68
2023/04/25 09:31:32;;;;;;;;;;;;;;;18.52;59.26;96125.84;5050861;28;20363;-71
2023/04/25 09:34:03;;;;;;;;;;;;;;;18.63;59.48;96125.66;5086615;28;20353;-70
2023/04/25 09:36:41;;;;;;;;;;;;;;;18.45;61.10;96122.97;5071511;28;19955;-69
2023/04/25 09:39:19;;;;;;;;;;;;;;;18.69;61.02;96118.06;5090225;28;20299;-69
2023/04/25 09:41:54;;;;;;;;;;;;;;;18.50;60.90;96112.06;5056721;28;20451;-70
2023/04/25 09:44:24;;;;;;;;;;;;;;;18.42;61.13;96109.28;5081223;28;19969;-69
2023/04/25 09:46:53;;;;;;;;;;;;;;;18.64;61.49;96119.47;5064825;28;19920;-69
2023/04/25 09:49:24;;;;;;;;;;;;;;;19.02;60.81;96108.84;5055625;28;20412;-71
2023/04/25 09:52:14;;;;;;;;;;;;;;;19.15;59.65;96109.34;5072223;28;20390;-71
2023/04/25 09:54:59;;;;;;;;;;;;;;;19.18;59.74;96109.06;5071896;28;19943;-69
2023/04/25 09:57:31;;;;;;;;;;;;;;;19.55;59.01;96109.03;5071452;28;20405;-68
2023/04/25 10:00:00;;;;;;;;;;;;;;;19.38;58.47;96113.28;5072224;28;19920;-71
2023/04/25 10:02:42;;;;;;;;;;;;;;;18.82;59.13;96065.28;5089621;28;19920;-70
2023/04/25 10:05:15;;;;;;;;;;;;;;;19.35;59.32;96110.13;5054644;28;19926;-68
2023/04/25 10:07:42;;;;;;;;;;;;;;;19.35;59.35;96099.63;5071597;28;20402;-69
2023/04/25 10:10:15;;;;;;;;;;;;;;;18.64;59.64;96090.63;5071207;28;19985;-74
2023/04/25 10:12:44;;;;;;;;;;;;;;;18.61;60.55;96088.28;5054274;28;19920;-69
2023/04/25 10:15:11;;;;;;;;;;;;;;;19.15;59.90;96083.09;5089248;28;19924;-70
2023/04/25 10:17:40;;;;;;;;;;;;;;;19.42;58.80;96075.25;5071579;28;19926;-72
2023/04/25 10:20:10;;;;;;;;;;;;;;;19.76;57.31;96066.72;5089911;28;20375;-69
2023/04/25 10:22:39;;;;;;;;;;;;;;;20.01;55.71;96063.34;5089632;28;19947;-68
2023/04/25 10:25:06;;;;;;;;;;;;;;;20.14;56.02;96050.63;5071477;28;19926;-71
2023/04/25 10:27:34;;;;;;;;;;;;;;;19.56;56.53;96050.25;5070873;28;19927;-70
2023/04/25 10:30:06;;;;;;;;;;;;;;;19.14;56.93;96034.22;5091384;28;19943;-70
2023/04/25 10:32:33;;;;;;;;;;;;;;;19.04;57.41;96038.66;5095542;28;19920;-69
2023/04/25 10:35:16;;;;;;;;;;;;;;;19.10;58.77;96038.06;5073451;28;19920;-70
2023/04/25 10:38:19;;;;;;;;;;;;;;;19.46;57.83;96034.59;5070813;28;19931;-68
2023/04/25 10:41:05;;;;;;;;;;;;;;;19.62;57.32;96027.84;4989918;28;19921;-71
2023/04/25 10:43:38;;;;;;;;;;;;;;;20.20;56.36;96026.38;5084153;28;19920;-69
2023/04/25 10:46:24;;;;;;;;;;;;;;;20.49;54.39;96021.66;5070572;28;19920;-70
2023/04/25 10:48:52;;;;;;;;;;;;;;;20.46;53.04;96015.88;5068426;28;19931;-70
2023/04/25 10:51:20;;;;;;;;;;;;;;;20.45;53.16;96015.03;5068843;28;20030;-69
2023/04/25 10:53:57;;;;;;;;;;;;;;;20.54;52.45;96018.56;5068803;28;19920;-70
2023/04/25 10:56:29;;;;;;;;;;;;;;;20.58;51.83;96022.53;5067792;28;20137;-70
2023/04/25 10:59:03;;;;;;;;;;;;;;;20.56;51.16;95983.22;5068732;28;20011;-71
2023/04/25 11:01:35;;;;;;;;;;;;;;;20.84;51.27;96013.59;5066965;28;19921;-70
2023/04/25 11:04:02;;;;;;;;;;;;;;;21.23;50.50;96008.69;5068275;28;20014;-72
2023/04/25 11:06:41;;;;;;;;;;;;;;;21.19;51.07;96001.25;5050164;28;20381;-71
2023/04/25 11:09:12;;;;;;;;;;;;;;;20.59;51.52;96003.94;5074580;28;19920;-70
2023/04/25 11:11:39;;;;;;;;;;;;;;;20.40;55.16;95998.09;5054561;28;19931;-70
2023/04/25 11:14:06;;;;;;;;;;;;;;;20.69;53.84;96004.66;5067858;28;19959;-67
2023/04/25 11:16:33;;;;;;;;;;;;;;;20.82;52.58;96007.69;5050224;28;19970;-70
2023/04/25 11:19:00;;;;;;;;;;;;;;;19.76;55.67;96006.31;5069192;28;19925;-70
2023/04/25 11:21:27;;;;;;;;;;;;;;;19.93;55.08;95994.91;5053320;28;20525;-67
2023/04/25 11:23:56;;;;;;;;;;;;;;;19.94;55.58;96001.84;5071466;28;19920;-70
2023/04/25 11:26:24;;;;;;;;;;;;;;;20.00;55.17;95998.59;5068633;28;20052;-73
2023/04/25 11:28:51;;;;;;;;;;;;;;;20.11;54.93;95998.38;5067826;28;20372;-71
2023/04/25 11:31:22;;;;;;;;;;;;;;;20.28;54.89;95984.34;5068254;28;19982;-70
2023/04/25 11:33:51;;;;;;;;;;;;;;;20.11;55.15;95987.84;5049322;28;19921;-68
2023/04/25 11:36:25;;;;;;;;;;;;;;;19.97;55.25;95985.78;5067849;28;20611;-69
2023/04/25 11:38:53;;;;;;;;;;;;;;;20.17;55.47;95976.72;5068030;28;20410;-71
2023/04/25 11:41:20;;;;;;;;;;;;;;;20.03;55.38;95970.19;5067447;28;20387;-70
2023/04/25 11:43:47;;;;;;;;;;;;;;;20.02;54.89;95978.25;5050272;28;19927;-68
2023/04/25 11:46:14;;;;;;;;;;;;;;;20.13;54.79;95970.13;5049865;28;19920;-72
2023/04/25 11:48:41;;;;;;;;;;;;;;;20.46;54.23;95969.38;5067967;28;19973;-70
2023/04/25 11:51:08;;;;;;;;;;;;;;;20.85;52.30;95956.53;5067763;28;19924;-69
2023/04/25 11:53:40;;;;;;;;;;;;;;;21.25;50.53;95959.31;5049860;28;19926;-69
2023/04/25 11:56:13;;;;;;;;;;;;;;;21.17;51.58;95947.91;5049855;28;19978;-68
2023/04/25 11:58:56;;;;;;;;;;;;;;;20.97;54.65;95944.72;5048106;28;19921;-68
2023/04/25 12:01:30;;;;;;;;;;;;;;;21.23;53.56;95950.75;5082629;28;19920;-70
2023/04/25 12:04:21;;;;;;;;;;;;;;;20.53;54.67;95948.50;5037058;28;20544;-67
2023/04/25 12:06:50;;;;;;;;;;;;;;;20.36;56.00;95938.91;5088108;28;19926;-69
2023/04/25 12:09:21;;;;;;;;;;;;;;;20.33;56.91;95934.78;5091726;28;19924;-69
2023/04/25 12:11:49;;;;;;;;;;;;;;;20.17;58.11;95937.28;5089684;28;19920;-69
2023/04/25 12:14:23;;;;;;;;;;;;;;;20.18;58.28;95931.03;5088069;28;19970;-68
2023/04/25 12:16:51;;;;;;;;;;;;;;;20.06;57.86;95938.38;5087666;28;19942;-70
2023/04/25 12:19:20;;;;;;;;;;;;;;;20.30;57.47;95932.44;5069507;28;19970;-69
2023/04/25 12:21:48;;;;;;;;;;;;;;;19.91;58.43;95933.81;5087733;28;19920;-70
2023/04/25 12:24:25;;;;;;;;;;;;;;;19.94;59.10;95923.00;5086310;28;19920;-69
2023/04/25 12:26:58;;;;;;;;;;;;;;;19.91;58.72;95924.13;5087904;28;19927;-71
2023/04/25 12:29:28;;;;;;;;;;;;;;;19.28;61.09;95925.25;5069089;28;19926;-69
2023/04/25 12:32:15;;;;;;;;;;;;;;;18.39;62.82;95929.50;5084681;28;20388;-69
2023/04/25 12:34:42;;;;;;;;;;;;;;;18.03;64.03;95913.78;5087374;28;19928;-69
2023/04/25 12:37:09;;;;;;;;;;;;;;;18.11;63.83;95906.84;5068834;28;20037;-69
2023/04/25 12:39:36;;;;;;;;;;;;;;;18.36;63.88;95905.38;5087573;28;19920;-68
2023/04/25 12:42:07;;;;;;;;;;;;;;;18.49;65.44;95911.94;5086977;28;20326;-71
2023/04/25 12:44:36;;;;;;;;;;;;;;;18.46;65.59;95912.25;5087334;28;19969;-70
2023/04/25 12:47:04;;;;;;;;;;;;;;;18.37;66.97;95907.00;5087264;28;20571;-70
2023/04/25 12:49:31;;;;;;;;;;;;;;;18.71;66.40;95910.72;5087020;28;19923;-69
2023/04/25 12:51:58;;;;;;;;;;;;;;;18.82;66.71;95902.63;5083815;28;20368;-70
2023/04/25 12:54:25;;;;;;;;;;;;;;;19.09;66.84;95902.59;5066967;28;19920;-70
2023/04/25 12:56:52;;;;;;;;;;;;;;;19.13;65.63;95909.19;5071696;28;19963;-69
2023/04/25 12:59:20;;;;;;;;;;;;;;;19.21;65.45;95913.69;5073973;28;19977;-70
2023/04/25 13:01:48;;;;;;;;;;;;;;;19.30;64.98;95902.28;5068997;28;20395;-70
2023/04/25 13:04:15;;;;;;;;;;;;;;;19.42;64.05;95906.34;5048974;28;19920;-70
2023/04/25 13:06:43;;;;;;;;;;;;;;;18.74;63.12;95913.03;5066726;28;19978;-68
2023/04/25 13:09:12;;;;;;;;;;;;;;;18.78;63.94;95922.28;5032156;28;19920;-68
2023/04/25 13:11:40;;;;;;;;;;;;;;;18.82;62.41;95923.63;5066566;28;19928;-71